Terminal Aerodrome Forecast
Issued by NWS Chicago, IL

Home | Current Version | Previous Version | Text Only | Print | Product List | Glossary Off
Versions: 1 2 3 4 5 6 7 8 9 10 11 12 13 14 15 16 17 18 19 20 21 22 23 24 25 26 27

606
FTUS43 KLOT 220524
TAFRFD
TAF
KRFD 220524Z 2206/2306 25010KT P6SM OVC045
     FM220700 24008KT P6SM FEW050
     FM221500 24015G23KT P6SM BKN100
     FM222000 23012G18KT 6SM -SHRA BKN050 PROB30 2221/2224 5SM -TSRA
      OVC050CB
     FM230200 21010KT P6SM VCSH SCT025 BKN040=

USA.gov is the U.S. government's official web portal to all federal, state and local government web resources and services.